createdAt,value
2019-05-05T00:00:55.083Z,14.69
2019-05-05T00:03:44.449Z,14.80
2019-05-05T00:06:15.772Z,14.86
2019-05-05T00:08:47.355Z,14.64
2019-05-05T00:11:37.200Z,14.73
2019-05-05T00:14:39.832Z,14.67
2019-05-05T00:17:18.351Z,14.76
2019-05-05T00:19:49.734Z,14.68
2019-05-05T00:22:21.384Z,14.67
2019-05-05T00:24:54.640Z,14.63
2019-05-05T00:27:26.524Z,14.63
2019-05-05T00:29:59.446Z,14.47
2019-05-05T00:32:31.172Z,14.45
2019-05-05T00:35:04.339Z,14.47
2019-05-05T00:37:36.279Z,14.31
2019-05-05T00:40:07.909Z,14.29
2019-05-05T00:42:39.501Z,14.39
2019-05-05T00:45:11.476Z,14.34
2019-05-05T00:48:07.808Z,14.33
2019-05-05T00:50:39.610Z,14.31
2019-05-05T00:53:11.319Z,14.27
2019-05-05T00:55:44.255Z,14.27
2019-05-05T00:58:15.946Z,14.10
2019-05-05T01:00:54.853Z,14.26
2019-05-05T01:03:27.876Z,14.07
2019-05-05T01:06:15.165Z,14.10
2019-05-05T01:08:47.222Z,14.22
2019-05-05T01:11:19.408Z,14.12
2019-05-05T01:13:51.104Z,14.11
2019-05-05T01:16:24.770Z,14.10
2019-05-05T01:18:56.283Z,14.10
2019-05-05T01:21:28.041Z,14.13
2019-05-05T01:23:59.800Z,14.17
2019-05-05T01:26:31.339Z,14.10
2019-05-05T01:29:05.289Z,14.10
2019-05-05T01:31:38.601Z,14.10
2019-05-05T01:34:26.235Z,14.06
2019-05-05T01:37:06.337Z,13.94
2019-05-05T01:39:47.143Z,14.06
2019-05-05T01:42:19.140Z,13.99
2019-05-05T01:44:50.809Z,13.90
2019-05-05T01:47:22.440Z,13.98
2019-05-05T01:49:54.543Z,13.74
2019-05-05T01:52:26.350Z,13.81
2019-05-05T01:54:58.074Z,13.62
2019-05-05T01:57:30.079Z,13.83
2019-05-05T02:00:04.247Z,13.47
2019-05-05T02:02:36.509Z,13.45
2019-05-05T02:05:09.358Z,13.51
2019-05-05T02:07:41.012Z,13.37
2019-05-05T02:10:15.274Z,13.30
2019-05-05T02:12:46.919Z,13.20
2019-05-05T02:15:18.935Z,13.01
2019-05-05T02:17:51.600Z,12.92
2019-05-05T02:21:01.364Z,12.66
2019-05-05T02:23:35.131Z,12.66
2019-05-05T02:26:08.150Z,12.48
2019-05-05T02:28:59.165Z,12.35
2019-05-05T02:31:55.051Z,12.56
2019-05-05T02:34:27.467Z,12.56
2019-05-05T02:37:00.233Z,12.49
2019-05-05T02:39:35.232Z,12.54
2019-05-05T02:42:05.944Z,12.42
2019-05-05T02:44:38.308Z,12.38
2019-05-05T02:47:30.418Z,12.36
2019-05-05T02:50:05.452Z,12.31
2019-05-05T02:52:39.795Z,12.31
2019-05-05T02:55:14.666Z,12.23
2019-05-05T02:57:46.921Z,12.03
2019-05-05T03:00:37.468Z,11.97
2019-05-05T03:03:09.867Z,12.01
2019-05-05T03:05:43.479Z,11.95
2019-05-05T03:08:15.401Z,12.01
2019-05-05T03:10:47.263Z,12.04
2019-05-05T03:13:20.162Z,11.87
2019-05-05T03:15:55.232Z,11.85
2019-05-05T03:18:27.201Z,11.76
2019-05-05T03:21:04.475Z,11.84
2019-05-05T03:23:33.467Z,11.87
2019-05-05T03:26:05.608Z,11.94
2019-05-05T03:28:44.407Z,11.90
2019-05-05T03:31:16.428Z,11.80
2019-05-05T03:33:48.049Z,11.86
2019-05-05T03:36:20.392Z,11.93
2019-05-05T03:38:54.132Z,11.98
2019-05-05T03:41:34.470Z,11.97
2019-05-05T03:44:14.957Z,11.91
2019-05-05T03:46:47.005Z,11.92
2019-05-05T03:49:19.225Z,11.93
2019-05-05T03:51:51.113Z,11.92
2019-05-05T03:54:23.861Z,11.95
2019-05-05T03:57:11.431Z,11.80
2019-05-05T03:59:44.430Z,11.89
2019-05-05T04:02:34.141Z,11.83
2019-05-05T04:05:25.416Z,11.86
2019-05-05T04:07:57.455Z,11.96
2019-05-05T04:10:29.389Z,11.80
2019-05-05T04:13:04.678Z,11.70
2019-05-05T04:15:37.892Z,11.88
2019-05-05T04:18:25.501Z,11.68
2019-05-05T04:20:57.238Z,11.67
2019-05-05T04:23:29.158Z,11.73
2019-05-05T04:26:00.954Z,11.83
2019-05-05T04:28:34.543Z,11.69
2019-05-05T04:31:06.337Z,11.64
2019-05-05T04:33:38.104Z,11.55
2019-05-05T04:36:09.902Z,11.65
2019-05-05T04:38:41.338Z,11.63
2019-05-05T04:41:14.047Z,11.51
2019-05-05T04:43:45.821Z,11.61
2019-05-05T04:46:17.304Z,11.56
2019-05-05T04:49:10.763Z,11.65
2019-05-05T04:51:50.089Z,11.71
2019-05-05T04:54:24.454Z,11.84
2019-05-05T04:56:55.917Z,11.84
2019-05-05T04:59:27.426Z,11.82
2019-05-05T05:02:03.994Z,11.79
2019-05-05T05:04:54.581Z,11.80
2019-05-05T05:07:27.546Z,11.88
2019-05-05T05:09:59.204Z,12.00
2019-05-05T05:12:34.179Z,11.91
2019-05-05T05:15:06.273Z,11.77
2019-05-05T05:17:44.498Z,11.90
2019-05-05T05:20:16.104Z,11.83
2019-05-05T05:22:47.898Z,11.82
2019-05-05T05:25:19.262Z,11.85
2019-05-05T05:27:50.823Z,11.96
2019-05-05T05:30:24.272Z,11.88
2019-05-05T05:32:56.027Z,11.99
2019-05-05T05:35:27.735Z,12.05
2019-05-05T05:37:59.453Z,12.08
2019-05-05T05:40:47.793Z,12.18
2019-05-05T05:43:25.366Z,12.15
2019-05-05T05:46:04.621Z,12.24
2019-05-05T05:48:43.464Z,12.39
2019-05-05T05:51:19.486Z,12.52
2019-05-05T05:53:51.263Z,12.64
2019-05-05T05:56:24.972Z,12.77
2019-05-05T05:58:57.801Z,12.80
2019-05-05T06:01:29.296Z,12.87
2019-05-05T06:04:00.955Z,12.72
2019-05-05T06:06:34.510Z,12.68
2019-05-05T06:09:06.885Z,12.57
2019-05-05T06:11:38.864Z,12.59
2019-05-05T06:14:10.834Z,12.69
2019-05-05T06:16:44.504Z,12.75
2019-05-05T06:19:16.101Z,12.63
2019-05-05T06:21:49.042Z,12.58
2019-05-05T06:24:20.845Z,12.68
2019-05-05T06:26:54.716Z,12.59
2019-05-05T06:29:26.636Z,12.61
2019-05-05T06:31:58.101Z,12.45
2019-05-05T06:34:29.716Z,12.48
2019-05-05T06:37:01.500Z,12.61
2019-05-05T06:39:33.594Z,12.73
2019-05-05T06:42:24.551Z,12.70
2019-05-05T06:45:04.140Z,12.62
2019-05-05T06:47:39.860Z,12.64
2019-05-05T06:50:11.619Z,12.67
2019-05-05T06:52:46.535Z,12.88
2019-05-05T06:55:16.908Z,12.94
2019-05-05T06:57:48.727Z,12.95
2019-05-05T07:00:20.237Z,12.95
2019-05-05T07:02:53.928Z,12.80
2019-05-05T07:05:25.553Z,12.99
2019-05-05T07:07:57.428Z,13.02
2019-05-05T07:10:33.724Z,13.10
2019-05-05T07:13:05.264Z,13.11
2019-05-05T07:15:37.053Z,13.13
2019-05-05T07:18:09.005Z,13.12
2019-05-05T07:20:40.682Z,13.07
2019-05-05T07:23:14.515Z,13.17
2019-05-05T07:25:46.414Z,13.30
2019-05-05T07:28:18.106Z,13.35
2019-05-05T07:30:49.665Z,13.07
2019-05-05T07:33:21.456Z,13.25
2019-05-05T07:36:15.113Z,13.31
2019-05-05T07:38:46.380Z,13.42
2019-05-05T07:41:19.297Z,13.55
2019-05-05T07:43:51.084Z,13.63
2019-05-05T07:46:24.142Z,13.77
2019-05-05T07:48:56.024Z,13.55
2019-05-05T07:51:27.951Z,13.81
2019-05-05T07:53:59.633Z,13.88
2019-05-05T07:56:31.354Z,13.82
2019-05-05T07:59:03.834Z,13.94
2019-05-05T08:01:35.692Z,14.02
2019-05-05T08:04:07.529Z,14.14
2019-05-05T08:06:39.029Z,14.01
2019-05-05T08:09:10.820Z,14.23
2019-05-05T08:11:44.484Z,14.05
2019-05-05T08:14:16.249Z,14.14
2019-05-05T08:17:14.550Z,14.24
2019-05-05T08:19:54.342Z,14.41
2019-05-05T08:22:26.256Z,14.42
2019-05-05T08:25:15.585Z,14.44
2019-05-05T08:27:53.692Z,14.51
2019-05-05T08:30:33.527Z,14.55
2019-05-05T08:33:05.562Z,14.50
2019-05-05T08:35:37.268Z,14.61
2019-05-05T08:38:09.079Z,14.52
2019-05-05T08:40:40.912Z,14.73
2019-05-05T08:43:13.866Z,14.76
2019-05-05T08:45:44.746Z,14.88
2019-05-05T08:48:16.178Z,14.91
2019-05-05T08:50:48.896Z,14.97
2019-05-05T08:53:20.795Z,14.95
2019-05-05T08:55:54.546Z,15.10
2019-05-05T08:58:25.996Z,15.25
2019-05-05T09:00:57.661Z,15.14
2019-05-05T09:03:29.492Z,15.18
2019-05-05T09:06:00.912Z,15.36
2019-05-05T09:08:34.557Z,15.44
2019-05-05T09:11:05.006Z,15.63
2019-05-05T09:13:36.608Z,15.86
2019-05-05T09:16:08.284Z,16.12
2019-05-05T09:18:58.175Z,16.77
2019-05-05T09:21:29.805Z,17.12
2019-05-05T09:24:18.181Z,17.35
2019-05-05T09:26:58.378Z,17.22
2019-05-05T09:29:34.833Z,17.28
2019-05-05T09:32:06.783Z,17.40
2019-05-05T09:34:38.329Z,17.40
2019-05-05T09:37:10.393Z,17.43
2019-05-05T09:39:43.685Z,17.18
2019-05-05T09:42:15.462Z,17.33
2019-05-05T09:44:47.088Z,17.36
2019-05-05T09:47:18.755Z,17.20
2019-05-05T09:49:50.639Z,17.10
2019-05-05T09:52:24.284Z,17.05
2019-05-05T09:54:55.695Z,17.05
2019-05-05T09:57:27.507Z,16.87
2019-05-05T10:00:13.831Z,16.80
2019-05-05T10:02:45.030Z,16.88
2019-05-05T10:05:16.855Z,16.83
2019-05-05T10:07:49.191Z,16.80
2019-05-05T10:10:20.951Z,16.86
2019-05-05T10:12:54.883Z,16.80
2019-05-05T10:15:26.113Z,16.71
2019-05-05T10:17:57.935Z,16.68
2019-05-05T10:20:29.536Z,16.56
2019-05-05T10:23:01.467Z,16.74
2019-05-05T10:25:53.968Z,16.75
2019-05-05T10:28:25.924Z,17.05
2019-05-05T10:30:57.605Z,17.57
2019-05-05T10:33:29.908Z,17.50
2019-05-05T10:36:01.559Z,17.75
2019-05-05T10:38:34.397Z,17.85
2019-05-05T10:41:06.421Z,17.80
2019-05-05T10:43:38.547Z,18.04
2019-05-05T10:46:10.234Z,18.30
2019-05-05T10:48:41.791Z,18.40
2019-05-05T10:51:13.347Z,18.56
2019-05-05T10:53:45.213Z,18.84
2019-05-05T10:56:17.408Z,19.32
2019-05-05T10:58:49.088Z,19.60
2019-05-05T11:01:20.790Z,19.65
2019-05-05T11:03:52.588Z,19.51
2019-05-05T11:06:24.392Z,19.67
2019-05-05T11:08:56.012Z,19.34
2019-05-05T11:11:27.761Z,19.10
2019-05-05T11:14:00.053Z,18.88
2019-05-05T11:16:31.879Z,19.48
2019-05-05T11:19:04.348Z,20.06
2019-05-05T11:21:36.152Z,19.91
2019-05-05T11:24:08.039Z,19.90
2019-05-05T11:26:39.919Z,19.72
2019-05-05T11:29:13.561Z,19.40
2019-05-05T11:31:45.654Z,19.39
2019-05-05T11:34:24.773Z,19.35
2019-05-05T11:37:11.442Z,19.23
2019-05-05T11:39:44.531Z,19.26
2019-05-05T11:42:17.270Z,19.37
2019-05-05T11:44:48.800Z,19.83
2019-05-05T11:47:21.287Z,20.04
2019-05-05T11:49:56.197Z,20.43
2019-05-05T11:52:26.417Z,20.71
2019-05-05T11:55:08.995Z,20.69
2019-05-05T11:57:33.442Z,20.26
2019-05-05T12:00:05.434Z,20.44
2019-05-05T12:02:37.351Z,20.49
2019-05-05T12:05:09.077Z,20.83
2019-05-05T12:07:40.750Z,21.39
2019-05-05T12:10:31.637Z,21.09
2019-05-05T12:13:04.431Z,20.58
2019-05-05T12:15:36.389Z,20.33
2019-05-05T12:18:08.109Z,19.95
2019-05-05T12:20:40.539Z,19.88
2019-05-05T12:23:12.322Z,19.72
2019-05-05T12:25:59.643Z,19.66
2019-05-05T12:28:39.142Z,19.45
2019-05-05T12:31:15.871Z,19.47
2019-05-05T12:33:47.623Z,19.58
2019-05-05T12:36:20.363Z,19.49
2019-05-05T12:38:54.408Z,19.64
2019-05-05T12:41:25.575Z,19.65
2019-05-05T12:43:57.262Z,19.50
2019-05-05T12:46:50.640Z,19.49
2019-05-05T12:49:25.256Z,19.32
2019-05-05T12:51:55.840Z,19.22
2019-05-05T12:54:27.454Z,19.19
2019-05-05T12:56:59.298Z,19.29
2019-05-05T12:59:31.144Z,19.06
2019-05-05T13:02:03.801Z,19.15
2019-05-05T13:04:35.728Z,19.24
2019-05-05T13:07:08.281Z,19.13
2019-05-05T13:09:40.228Z,19.28
2019-05-05T13:12:12.095Z,19.27
2019-05-05T13:14:44.259Z,19.50
2019-05-05T13:17:15.861Z,19.98
2019-05-05T13:19:55.670Z,19.98
2019-05-05T13:23:01.616Z,20.72
2019-05-05T13:25:58.469Z,20.67
2019-05-05T13:28:28.434Z,20.50
2019-05-05T13:31:00.037Z,20.73
2019-05-05T13:33:33.608Z,21.86
2019-05-05T13:36:05.107Z,22.60
2019-05-05T13:38:36.759Z,22.20
2019-05-05T13:41:08.424Z,23.44
2019-05-05T13:43:40.397Z,23.35
2019-05-05T13:46:36.927Z,23.78
2019-05-05T13:49:46.358Z,24.38
2019-05-05T13:52:18.272Z,24.32
2019-05-05T13:54:50.227Z,23.62
2019-05-05T13:57:21.989Z,22.89
2019-05-05T13:59:54.600Z,22.82
2019-05-05T14:02:26.590Z,22.65
2019-05-05T14:04:58.512Z,22.43
2019-05-05T14:07:30.352Z,22.11
2019-05-05T14:10:03.788Z,22.16
2019-05-05T14:12:36.483Z,22.19
2019-05-05T14:15:09.796Z,22.29
2019-05-05T14:17:43.943Z,22.86
2019-05-05T14:20:16.328Z,22.25
2019-05-05T14:22:47.944Z,22.67
2019-05-05T14:25:24.695Z,23.42
2019-05-05T14:27:56.337Z,23.22
2019-05-05T14:30:49.862Z,23.06
2019-05-05T14:33:25.858Z,22.95
2019-05-05T14:36:13.686Z,23.66
2019-05-05T14:38:51.045Z,23.48
2019-05-05T14:41:22.640Z,22.69
2019-05-05T14:43:56.563Z,22.13
2019-05-05T14:46:28.263Z,21.43
2019-05-05T14:48:59.946Z,20.93
2019-05-05T14:51:34.021Z,20.63
2019-05-05T14:54:10.814Z,20.41
2019-05-05T14:56:44.062Z,20.05
2019-05-05T14:59:16.058Z,19.68
2019-05-05T15:01:47.961Z,19.56
2019-05-05T15:04:20.853Z,19.38
2019-05-05T15:07:30.094Z,19.27
2019-05-05T15:10:36.569Z,19.10
2019-05-05T15:13:10.074Z,19.10
2019-05-05T15:15:42.071Z,19.06
2019-05-05T15:18:14.653Z,19.00
2019-05-05T15:20:46.629Z,18.86
2019-05-05T15:23:18.484Z,18.71
2019-05-05T15:25:50.215Z,18.66
2019-05-05T15:28:21.931Z,18.83
2019-05-05T15:30:54.504Z,18.89
2019-05-05T15:33:26.587Z,18.81
2019-05-05T15:35:58.408Z,18.81
2019-05-05T15:38:30.325Z,18.64
2019-05-05T15:41:03.880Z,18.54
2019-05-05T15:43:35.424Z,18.43
2019-05-05T15:46:07.347Z,18.46
2019-05-05T15:48:39.276Z,18.45
2019-05-05T15:51:10.931Z,18.40
2019-05-05T15:53:42.487Z,18.33
2019-05-05T15:56:14.399Z,18.17
2019-05-05T15:58:46.242Z,17.96
2019-05-05T16:01:18.127Z,17.71
2019-05-05T16:03:49.757Z,17.39
2019-05-05T16:06:23.636Z,17.10
2019-05-05T16:08:56.672Z,16.75
2019-05-05T16:11:28.841Z,16.49
2019-05-05T16:14:01.213Z,16.28
2019-05-05T16:16:57.912Z,16.13
2019-05-05T16:19:55.082Z,16.06
2019-05-05T16:22:46.183Z,15.97
2019-05-05T16:25:17.851Z,15.86
2019-05-05T16:27:49.723Z,15.72
2019-05-05T16:30:23.562Z,15.61
2019-05-05T16:32:55.573Z,15.75
2019-05-05T16:35:27.396Z,15.75
2019-05-05T16:37:58.944Z,15.79
2019-05-05T16:40:30.599Z,15.82
2019-05-05T16:43:01.999Z,15.94
2019-05-05T16:45:34.138Z,16.07
2019-05-05T16:48:05.872Z,16.11
2019-05-05T16:50:37.724Z,16.04
2019-05-05T16:53:11.078Z,16.12
2019-05-05T16:55:50.401Z,16.13
2019-05-05T16:58:23.973Z,16.27
2019-05-05T17:00:55.850Z,16.22
2019-05-05T17:03:27.718Z,16.19
2019-05-05T17:05:59.657Z,16.22
2019-05-05T17:08:31.362Z,16.20
2019-05-05T17:11:03.197Z,16.25
2019-05-05T17:13:44.042Z,16.34
2019-05-05T17:16:28.882Z,16.42
2019-05-05T17:19:19.753Z,16.42
2019-05-05T17:22:09.214Z,16.45
2019-05-05T17:24:40.911Z,16.46
2019-05-05T17:27:13.911Z,16.43
2019-05-05T17:29:44.755Z,16.40
2019-05-05T17:32:16.194Z,16.47
2019-05-05T17:34:47.851Z,16.45
2019-05-05T17:37:19.865Z,16.36
2019-05-05T17:39:57.979Z,16.45
2019-05-05T17:42:38.911Z,16.44
2019-05-05T17:45:23.921Z,16.51
2019-05-05T17:48:09.633Z,16.34
2019-05-05T17:50:59.179Z,16.48
2019-05-05T17:53:48.857Z,16.47
2019-05-05T17:56:20.873Z,16.34
2019-05-05T17:58:53.802Z,16.41
2019-05-05T18:01:25.735Z,16.41
2019-05-05T18:03:57.480Z,16.30
2019-05-05T18:06:39.750Z,16.30
2019-05-05T18:09:39.238Z,16.16
2019-05-05T18:12:29.850Z,16.29
2019-05-05T18:15:04.595Z,16.12
2019-05-05T18:17:37.132Z,16.16
2019-05-05T18:20:09.099Z,16.18
2019-05-05T18:22:40.444Z,16.23
2019-05-05T18:25:11.962Z,16.11
2019-05-05T18:27:43.932Z,16.22
2019-05-05T18:30:16.173Z,16.22
2019-05-05T18:32:48.378Z,16.27
2019-05-05T18:35:20.162Z,16.36
2019-05-05T18:37:54.327Z,16.37
2019-05-05T18:40:25.799Z,16.38
2019-05-05T18:42:59.116Z,16.41
2019-05-05T18:45:30.542Z,16.34
2019-05-05T18:48:04.399Z,16.24
2019-05-05T18:50:36.162Z,16.36
2019-05-05T18:53:08.069Z,16.24
2019-05-05T18:55:39.522Z,16.28
2019-05-05T18:58:12.247Z,16.30
2019-05-05T19:01:03.802Z,16.27
2019-05-05T19:03:54.510Z,16.24
2019-05-05T19:06:44.045Z,16.05
2019-05-05T19:09:19.999Z,16.16
2019-05-05T19:11:52.020Z,16.10
2019-05-05T19:14:24.335Z,16.10
2019-05-05T19:16:56.174Z,16.12
2019-05-05T19:19:27.742Z,16.02
2019-05-05T19:22:05.523Z,16.03
2019-05-05T19:24:37.104Z,16.01
2019-05-05T19:27:09.241Z,15.98
2019-05-05T19:29:41.104Z,15.94
2019-05-05T19:32:13.094Z,15.94
2019-05-05T19:34:45.034Z,15.96
2019-05-05T19:37:16.685Z,15.94
2019-05-05T19:39:48.404Z,16.05
2019-05-05T19:42:20.072Z,16.01
2019-05-05T19:44:51.768Z,15.88
2019-05-05T19:47:24.635Z,15.89
2019-05-05T19:50:14.411Z,16.03
2019-05-05T19:52:47.214Z,16.02
2019-05-05T19:55:19.049Z,16.02
2019-05-05T19:57:51.160Z,15.96
2019-05-05T20:00:23.433Z,15.66
2019-05-05T20:03:04.319Z,15.70
2019-05-05T20:05:30.248Z,15.61
2019-05-05T20:08:03.909Z,15.74
2019-05-05T20:10:35.522Z,15.43
2019-05-05T20:13:07.079Z,15.71
2019-05-05T20:15:48.152Z,15.73
2019-05-05T20:18:21.069Z,15.78
2019-05-05T20:21:03.623Z,15.77
2019-05-05T20:23:24.901Z,15.85
2019-05-05T20:25:56.872Z,15.86
2019-05-05T20:28:28.713Z,15.79
2019-05-05T20:31:00.626Z,15.59
2019-05-05T20:33:41.480Z,15.72
2019-05-05T20:36:16.424Z,15.63
2019-05-05T20:38:50.249Z,15.70
2019-05-05T20:41:24.918Z,15.75
2019-05-05T20:43:56.935Z,15.81
2019-05-05T20:46:28.526Z,15.75
2019-05-05T20:49:00.130Z,15.69
2019-05-05T20:51:33.841Z,15.66
2019-05-05T20:54:05.366Z,15.61
2019-05-05T20:56:37.072Z,15.51
2019-05-05T20:59:08.905Z,15.66
2019-05-05T21:01:40.725Z,15.68
2019-05-05T21:04:14.096Z,15.78
2019-05-05T21:06:46.937Z,15.80
2019-05-05T21:09:18.394Z,15.71
2019-05-05T21:11:50.165Z,15.75
2019-05-05T21:14:32.008Z,15.65
2019-05-05T21:16:56.563Z,15.55
2019-05-05T21:19:28.294Z,15.60
2019-05-05T21:22:04.103Z,15.68
2019-05-05T21:24:35.853Z,15.57
2019-05-05T21:27:07.597Z,15.61
2019-05-05T21:29:42.234Z,15.57
2019-05-05T21:32:13.792Z,15.39
2019-05-05T21:34:45.636Z,15.51
2019-05-05T21:37:17.376Z,15.51
2019-05-05T21:39:49.394Z,15.58
2019-05-05T21:42:21.320Z,15.46
2019-05-05T21:44:53.888Z,15.31
2019-05-05T21:47:25.808Z,15.25
2019-05-05T21:49:57.296Z,15.20
2019-05-05T21:52:41.282Z,15.26
2019-05-05T21:55:33.894Z,15.19
2019-05-05T21:58:18.412Z,15.28
2019-05-05T22:01:04.670Z,15.24
2019-05-05T22:03:38.543Z,15.23
2019-05-05T22:06:10.238Z,15.42
2019-05-05T22:08:41.978Z,15.42
2019-05-05T22:11:14.668Z,15.41
2019-05-05T22:13:47.027Z,15.29
2019-05-05T22:16:18.914Z,15.45
2019-05-05T22:18:50.607Z,15.36
2019-05-05T22:21:31.412Z,15.38
2019-05-05T22:24:19.728Z,15.36
2019-05-05T22:26:51.430Z,15.35
2019-05-05T22:29:24.950Z,15.24
2019-05-05T22:31:56.864Z,15.29
2019-05-05T22:34:29.143Z,15.24
2019-05-05T22:37:00.962Z,15.27
2019-05-05T22:39:33.806Z,15.20
2019-05-05T22:42:05.490Z,15.16
2019-05-05T22:44:37.263Z,15.09
2019-05-05T22:47:09.138Z,15.08
2019-05-05T22:49:41.180Z,15.08
2019-05-05T22:52:14.458Z,15.09
2019-05-05T22:54:46.051Z,15.08
2019-05-05T22:57:17.868Z,15.05
2019-05-05T22:59:49.729Z,15.18
2019-05-05T23:02:24.461Z,15.19
2019-05-05T23:05:11.923Z,15.17
2019-05-05T23:07:43.901Z,15.23
2019-05-05T23:10:16.090Z,15.19
2019-05-05T23:12:47.729Z,15.26
2019-05-05T23:15:19.751Z,15.26
2019-05-05T23:18:06.682Z,15.31
2019-05-05T23:21:19.489Z,15.32
2019-05-05T23:24:05.407Z,15.29
2019-05-05T23:26:38.731Z,15.31
2019-05-05T23:29:09.175Z,15.31
2019-05-05T23:31:40.798Z,15.35
2019-05-05T23:34:14.567Z,15.28
2019-05-05T23:36:46.159Z,15.35
2019-05-05T23:39:17.903Z,15.41
2019-05-05T23:41:49.645Z,15.46
2019-05-05T23:44:21.456Z,15.36
2019-05-05T23:46:53.887Z,15.33
2019-05-05T23:49:25.640Z,15.29
2019-05-05T23:51:57.558Z,15.33
2019-05-05T23:54:29.144Z,15.01
2019-05-05T23:57:00.843Z,15.11
2019-05-05T23:59:32.509Z,15.23
